Time;durP1;ratioP1;P1;durP2;ratioP2;P2;SDS_P1;SDS_P2;PMS_P1;PMS_P2;Temp;Humidity;BMP_temperature;BMP_pressure;BME280_temperature;BME280_humidity;BME280_pressure;Samples;Min_cycle;Max_cycle;Signal;HPM_P1;HPM_P2
2022/05/16 04:02:40;;;;;;;15.47;8.63;;;14.10;96.30;;;;;;4934155;29;20471;-76
2022/05/16 04:05:08;;;;;;;19.50;12.50;;;14.50;96.30;;;;;;4936286;29;20420;-75
2022/05/16 04:07:34;;;;;;;15.63;8.77;;;14.70;96.30;;;;;;4917825;29;20840;-77
2022/05/16 04:10:00;;;;;;;6.77;3.70;;;14.80;96.30;;;;;;4936348;29;20419;-73
2022/05/16 04:12:25;;;;;;;7.57;4.80;;;15.20;96.30;;;;;;4936509;29;20203;-74
2022/05/16 04:14:52;;;;;;;8.03;2.90;;;15.40;96.30;;;;;;4935568;29;20419;-77
2022/05/16 04:17:17;;;;;;;11.47;2.70;;;15.60;96.30;;;;;;4937122;29;20290;-76
2022/05/16 04:19:43;;;;;;;5.73;2.67;;;15.80;96.30;;;;;;4934319;29;20526;-75
2022/05/16 04:22:08;;;;;;;4.07;2.00;;;16.00;95.50;;;;;;4918922;29;20199;-74
2022/05/16 04:24:34;;;;;;;6.50;2.30;;;16.10;95.20;;;;;;4936652;29;20184;-75
2022/05/16 04:27:01;;;;;;;4.70;2.30;;;16.30;94.60;;;;;;4936450;29;20208;-74
2022/05/16 04:29:27;;;;;;;6.53;2.07;;;16.80;93.30;;;;;;4930688;29;20924;-74
2022/05/16 06:02:04;;;;;;;3.83;1.90;;;24.90;71.10;;;;;;5057075;23;21045;-76
2022/05/16 06:04:29;;;;;;;6.20;2.30;;;24.90;71.90;;;;;;4960777;28;20422;-77
2022/05/16 06:06:55;;;;;;;6.40;1.87;;;25.40;70.30;;;;;;4973736;28;20437;-77
2022/05/16 06:09:21;;;;;;;8.80;2.17;;;25.90;69.20;;;;;;4948524;28;20209;-77
2022/05/16 06:11:48;;;;;;;7.90;2.53;;;24.80;72.20;;;;;;4949885;28;20233;-77
2022/05/16 06:14:13;;;;;;;3.20;2.10;;;26.00;70.40;;;;;;4976144;28;20184;-77
2022/05/16 06:16:40;;;;;;;7.53;2.70;;;25.60;69.90;;;;;;4976026;28;20465;-77
2022/05/16 06:19:08;;;;;;;5.10;2.40;;;26.10;70.10;;;;;;4958543;28;20642;-77
2022/05/16 06:21:34;;;;;;;7.97;2.70;;;26.50;68.60;;;;;;4976083;28;20436;-77
2022/05/16 06:24:00;;;;;;;8.93;2.73;;;26.40;68.10;;;;;;4975965;28;20556;-77
2022/05/16 06:26:25;;;;;;;3.90;1.97;;;26.30;68.30;;;;;;4975122;28;20850;-76
2022/05/16 06:28:51;;;;;;;6.30;2.00;;;26.30;68.30;;;;;;4956392;28;20615;-77
2022/05/16 06:31:16;;;;;;;6.17;2.40;;;25.80;68.40;;;;;;4973526;28;20289;-77
2022/05/16 06:33:46;;;;;;;6.03;2.40;;;25.10;70.50;;;;;;4973669;28;20173;-76
2022/05/16 06:36:13;;;;;;;7.57;2.00;;;23.90;72.40;;;;;;4974027;28;20197;-77
2022/05/16 06:38:38;;;;;;;5.43;2.20;;;24.80;71.80;;;;;;4974910;28;20519;-77
2022/05/16 06:41:04;;;;;;;4.80;2.30;;;25.20;70.40;;;;;;4977981;28;20960;-77
2022/05/16 06:43:30;;;;;;;6.23;2.50;;;25.60;69.90;;;;;;4977583;28;20170;-78
2022/05/16 06:45:56;;;;;;;3.80;1.90;;;25.50;69.80;;;;;;4977682;28;20234;-77
2022/05/16 06:48:22;;;;;;;8.13;2.37;;;26.00;69.70;;;;;;4977977;28;20178;-77
2022/05/16 06:50:49;;;;;;;6.93;2.57;;;26.00;69.20;;;;;;4978112;28;20425;-77
2022/05/16 06:53:18;;;;;;;5.73;2.03;;;25.50;69.40;;;;;;4957834;28;20534;-77
2022/05/16 06:55:44;;;;;;;8.00;2.20;;;26.20;69.20;;;;;;4947357;29;20456;-77
2022/05/16 06:58:09;;;;;;;7.93;2.20;;;26.90;67.60;;;;;;4957744;29;20494;-77
2022/05/16 07:00:36;;;;;;;5.23;2.17;;;26.60;68.50;;;;;;4958606;29;20206;-77
2022/05/16 07:03:02;;;;;;;5.57;2.40;;;26.80;68.20;;;;;;4958418;29;20171;-77
2022/05/16 07:05:28;;;;;;;5.23;2.10;;;27.20;66.80;;;;;;4958149;29;20910;-77
2022/05/16 07:07:55;;;;;;;5.43;2.60;;;27.00;68.30;;;;;;4958578;29;20414;-77
2022/05/16 07:10:21;;;;;;;6.97;2.27;;;26.90;68.60;;;;;;4958241;29;20822;-78
2022/05/16 07:12:46;;;;;;;5.93;2.40;;;26.50;69.60;;;;;;4958239;29;20422;-78
2022/05/16 07:15:13;;;;;;;4.50;2.37;;;27.20;68.30;;;;;;4958460;29;20414;-77
2022/05/16 07:17:39;;;;;;;5.77;2.00;;;27.00;67.80;;;;;;4958218;29;20194;-77
2022/05/16 07:20:05;;;;;;;10.87;2.93;;;26.90;67.80;;;;;;4958076;29;21107;-77
2022/05/16 07:22:30;;;;;;;10.53;2.40;;;27.00;67.70;;;;;;4941064;29;20209;-77
2022/05/16 07:24:58;;;;;;;7.43;2.33;;;27.50;66.70;;;;;;4940622;29;20480;-77
2022/05/16 07:30:09;;;;;;;5.33;2.10;;;27.90;65.90;;;;;;4957631;29;20421;-76
2022/05/16 07:32:43;;;;;;;12.07;3.00;;;28.50;64.50;;;;;;4956311;29;20458;-75
2022/05/16 07:35:12;;;;;;;10.20;2.30;;;27.80;66.40;;;;;;4956431;29;20890;-75
2022/05/16 07:37:38;;;;;;;10.07;2.50;;;27.90;66.60;;;;;;4956007;29;20454;-75
2022/05/16 07:40:07;;;;;;;7.70;2.47;;;27.80;66.20;;;;;;4956456;29;20414;-75
2022/05/16 07:42:33;;;;;;;8.40;2.53;;;27.80;67.00;;;;;;4956187;29;20318;-75
2022/05/16 07:45:00;;;;;;;4.30;1.83;;;27.90;65.70;;;;;;4956209;29;20509;-75
2022/05/16 07:47:26;;;;;;;5.67;2.60;;;29.00;63.40;;;;;;4956133;29;20464;-76
2022/05/16 07:49:51;;;;;;;8.93;2.47;;;28.30;62.90;;;;;;4956125;28;20418;-75
2022/05/16 07:52:16;;;;;;;6.83;2.93;;;28.40;64.90;;;;;;4956107;29;20203;-75
2022/05/16 07:54:42;;;;;;;15.73;2.80;;;28.00;64.40;;;;;;4956231;29;20186;-75
2022/05/16 07:57:08;;;;;;;4.97;2.63;;;27.90;64.20;;;;;;4956089;29;20257;-75
2022/05/16 07:59:33;;;;;;;9.93;2.30;;;28.30;64.10;;;;;;4955654;29;20174;-75
2022/05/16 08:01:59;;;;;;;7.63;2.57;;;27.70;64.30;;;;;;4955830;29;20205;-76
2022/05/16 08:04:24;;;;;;;5.63;1.93;;;27.70;65.70;;;;;;4955942;29;20713;-75
2022/05/16 08:06:49;;;;;;;5.60;2.17;;;28.30;67.10;;;;;;4955880;29;20186;-76
2022/05/16 08:11:59;;;;;;;9.53;2.27;;;29.80;63.70;;;;;;4955921;29;20209;-77
2022/05/16 08:14:24;;;;;;;6.17;2.10;;;29.80;61.50;;;;;;4955930;29;20414;-75
2022/05/16 08:16:50;;;;;;;13.70;2.77;;;30.20;57.90;;;;;;4938587;29;20584;-75
2022/05/16 08:19:16;;;;;;;6.93;3.00;;;30.80;60.50;;;;;;4964914;28;20181;-75
2022/05/16 08:21:42;;;;;;;8.23;2.57;;;30.30;60.40;;;;;;4974908;28;20240;-75
2022/05/16 08:24:09;;;;;;;5.23;2.40;;;29.40;61.90;;;;;;4974850;28;20449;-77
2022/05/16 08:26:35;;;;;;;16.63;2.50;;;29.30;64.50;;;;;;4974743;28;20185;-75
2022/05/16 08:29:02;;;;;;;3.70;1.93;;;29.60;60.50;;;;;;4974481;28;20441;-74
2022/05/16 08:31:28;;;;;;;6.33;2.40;;;29.50;59.40;;;;;;4974644;28;20445;-75
2022/05/16 08:33:55;;;;;;;6.97;2.60;;;29.50;61.00;;;;;;4974752;28;20409;-74
2022/05/16 08:41:57;;;;;;;7.97;2.90;;;29.70;60.50;;;;;;4974753;28;20527;-75
2022/05/16 08:44:56;;;;;;;7.67;2.30;;;29.80;60.20;;;;;;4974451;28;20837;-74
2022/05/16 08:47:30;;;;;;;7.53;2.47;;;30.30;60.50;;;;;;4973827;28;20421;-74
2022/05/16 08:49:57;;;;;;;5.33;2.70;;;30.70;59.70;;;;;;4974430;28;20408;-74
2022/05/16 08:52:33;;;;;;;10.50;2.67;;;31.10;57.50;;;;;;4976404;28;20434;-77
2022/05/16 08:55:19;;;;;;;8.90;2.30;;;30.60;60.40;;;;;;4958542;28;20500;-77
2022/05/16 08:57:49;;;;;;;3.30;1.97;;;29.90;59.90;;;;;;4975219;28;20465;-77
2022/05/16 09:00:27;;;;;;;6.93;2.17;;;30.30;60.30;;;;;;4975577;28;20421;-77
2022/05/16 09:02:56;;;;;;;5.03;2.20;;;30.30;56.40;;;;;;4975594;28;20424;-77
2022/05/16 09:05:27;;;;;;;4.63;2.20;;;;;;;;;;4974934;28;20421;-76
2022/05/16 09:07:56;;;;;;;3.20;1.87;;;29.60;59.60;;;;;;4974188;28;20405;-77
2022/05/16 09:10:36;;;;;;;9.30;2.33;;;30.50;62.20;;;;;;4952185;28;20439;-76
2022/05/16 09:13:34;;;;;;;2.70;1.40;;;31.00;59.70;;;;;;4956910;28;20895;-76
2022/05/16 09:16:17;;;;;;;4.57;2.43;;;30.40;56.50;;;;;;4974713;28;20435;-76
2022/05/16 09:19:01;;;;;;;3.70;2.00;;;31.10;60.90;;;;;;4973977;28;20465;-77
2022/05/16 09:21:37;;;;;;;9.90;2.10;;;29.50;58.00;;;;;;4974770;28;20421;-77
2022/05/16 09:24:14;;;;;;;4.40;2.03;;;30.60;59.90;;;;;;4974613;28;20412;-76
2022/05/16 09:27:06;;;;;;;9.50;2.53;;;30.90;59.10;;;;;;4974658;28;20440;-76
2022/05/16 09:29:37;;;;;;;5.03;2.47;;;;;;;;;;4973728;28;20405;-77
2022/05/16 09:32:12;;;;;;;7.27;2.70;;;;;;;;;;4973944;28;20504;-77
2022/05/16 09:34:38;;;;;;;5.50;1.90;;;;;;;;;;4956716;28;20413;-77
2022/05/16 09:37:04;;;;;;;4.43;1.67;;;;;;;;;;4974290;28;20510;-77
2022/05/16 09:39:31;;;;;;;4.37;2.47;;;30.40;56.50;;;;;;4956827;28;20429;-77
2022/05/16 09:42:19;;;;;;;5.60;2.10;;;29.40;56.30;;;;;;4956551;28;20455;-76
2022/05/16 09:44:53;;;;;;;4.57;2.30;;;29.40;56.00;;;;;;4974190;28;20423;-76
2022/05/16 09:47:34;;;;;;;6.77;1.77;;;28.20;57.90;;;;;;4973487;28;20507;-76
2022/05/16 09:50:02;;;;;;;4.10;1.93;;;28.40;60.60;;;;;;4973522;28;20749;-77
2022/05/16 09:52:35;;;;;;;33.03;2.33;;;28.70;59.10;;;;;;4973486;28;20436;-76
2022/05/16 09:55:09;;;;;;;6.33;1.90;;;28.80;58.70;;;;;;4974039;28;21064;-76
2022/05/16 09:57:59;;;;;;;4.50;2.10;;;28.30;57.80;;;;;;4973304;28;20455;-76
2022/05/16 10:00:30;;;;;;;11.00;2.20;;;27.80;57.50;;;;;;4955845;28;20429;-77
2022/05/16 10:03:19;;;;;;;2.83;1.60;;;27.60;58.70;;;;;;4973341;28;20887;-78
2022/05/16 10:05:48;;;;;;;4.80;2.10;;;27.90;56.80;;;;;;4955898;28;20564;-76
2022/05/16 10:08:33;;;;;;;4.40;1.60;;;28.60;58.30;;;;;;4972966;28;20412;-76
2022/05/16 10:11:02;;;;;;;6.20;2.00;;;29.60;59.60;;;;;;4973208;28;20429;-77
2022/05/16 10:13:28;;;;;;;4.30;1.80;;;30.30;55.80;;;;;;4974617;28;20409;-76
2022/05/16 10:15:56;;;;;;;7.40;2.60;;;30.10;61.70;;;;;;4977306;28;20428;-77
2022/05/16 10:18:24;;;;;;;4.70;1.63;;;30.20;55.30;;;;;;4977908;28;20251;-77
2022/05/16 10:21:03;;;;;;;3.00;1.93;;;29.60;58.60;;;;;;4978280;28;20515;-77
2022/05/16 10:23:34;;;;;;;5.47;2.13;;;29.40;57.20;;;;;;4977272;28;20750;-77
2022/05/16 10:26:08;;;;;;;3.23;1.60;;;29.20;60.60;;;;;;4977251;28;20413;-76
2022/05/16 10:28:43;;;;;;;7.70;2.33;;;30.00;64.20;;;;;;4976761;28;20405;-74
2022/05/16 10:34:06;;;;;;;5.70;1.70;;;28.30;59.90;;;;;;4977154;28;20420;-77
2022/05/16 10:36:33;;;;;;;4.77;1.90;;;28.70;59.30;;;;;;4976829;28;20409;-74
2022/05/16 10:39:09;;;;;;;8.53;2.37;;;28.50;58.50;;;;;;4976666;28;20421;-74
2022/05/16 10:41:56;;;;;;;5.27;2.13;;;29.40;58.20;;;;;;4976548;28;20444;-75
2022/05/16 10:44:32;;;;;;;5.97;2.17;;;29.30;56.10;;;;;;4976728;28;20749;-74
2022/05/16 10:47:12;;;;;;;5.27;2.40;;;28.80;58.90;;;;;;4976561;28;20408;-74
2022/05/16 10:50:08;;;;;;;4.50;1.90;;;28.90;60.30;;;;;;4976461;28;20756;-74
2022/05/16 10:52:40;;;;;;;5.47;2.30;;;28.80;61.20;;;;;;4976419;28;20436;-74
2022/05/16 10:55:06;;;;;;;5.07;2.57;;;29.20;61.90;;;;;;4959445;28;20432;-74
2022/05/16 10:57:53;;;;;;;7.63;2.00;;;29.60;62.50;;;;;;4976141;28;20547;-74
2022/05/16 11:00:22;;;;;;;7.47;2.40;;;30.10;65.20;;;;;;4976504;28;20770;-75
2022/05/16 11:03:12;;;;;;;3.93;1.87;;;30.60;65.70;;;;;;4976279;28;20508;-74
2022/05/16 11:05:49;;;;;;;4.27;2.03;;;30.80;64.90;;;;;;4976049;28;20397;-75
2022/05/16 11:08:32;;;;;;;10.23;2.90;;;30.90;57.00;;;;;;4975048;28;20425;-75
2022/05/16 11:11:10;;;;;;;30.03;9.27;;;31.10;58.40;;;;;;4976120;28;20483;-75
2022/05/16 11:13:48;;;;;;;30.07;7.13;;;31.10;62.00;;;;;;4975872;28;20524;-75
2022/05/16 11:16:21;;;;;;;4.57;2.10;;;31.10;60.70;;;;;;4976218;28;20456;-76
2022/05/16 11:19:07;;;;;;;7.47;2.00;;;30.90;57.00;;;;;;4975746;28;20551;-75
2022/05/16 11:21:58;;;;;;;10.67;2.00;;;30.80;58.70;;;;;;4975820;28;20428;-75
2022/05/16 11:24:24;;;;;;;4.93;1.83;;;;;;;;;;4975330;28;20401;-75
2022/05/16 11:27:02;;;;;;;4.70;2.17;;;30.00;58.00;;;;;;4975767;28;20496;-75
2022/05/16 11:29:32;;;;;;;8.33;2.00;;;30.20;65.90;;;;;;4975593;28;20204;-76
2022/05/16 11:31:58;;;;;;;4.57;1.90;;;31.00;61.50;;;;;;4958315;28;20452;-77
2022/05/16 11:34:43;;;;;;;10.03;2.70;;;31.20;59.30;;;;;;4975754;28;20405;-75
2022/05/16 11:37:29;;;;;;;7.50;3.37;;;31.30;62.70;;;;;;4975563;28;20332;-76
2022/05/16 11:40:07;;;;;;;6.53;2.33;;;31.00;59.10;;;;;;4975569;28;20992;-76
2022/05/16 11:43:04;;;;;;;5.57;2.07;;;29.80;59.30;;;;;;4975527;28;20433;-76
2022/05/16 11:45:53;;;;;;;11.43;2.67;;;29.70;59.40;;;;;;4975578;28;20451;-76
2022/05/16 11:48:24;;;;;;;3.33;1.70;;;29.00;62.50;;;;;;4974611;28;20413;-77
2022/05/16 11:50:49;;;;;;;4.90;1.90;;;29.20;60.40;;;;;;4974891;28;20429;-76
2022/05/16 11:53:44;;;;;;;6.87;2.93;;;29.80;66.10;;;;;;4957850;28;20788;-76
2022/05/16 12:02:22;;;;;;;8.97;2.77;;;31.40;60.00;;;;;;4936650;29;20550;-75
2022/05/16 12:04:50;;;;;;;5.03;1.87;;;31.10;59.30;;;;;;4936800;29;20414;-76
2022/05/16 12:07:19;;;;;;;7.83;2.07;;;30.70;59.20;;;;;;4936715;29;20517;-76
2022/05/16 12:09:50;;;;;;;3.63;1.90;;;31.70;61.20;;;;;;4936455;29;20870;-74
2022/05/16 12:12:34;;;;;;;5.03;2.73;;;30.90;60.70;;;;;;4936534;29;20462;-76
2022/05/16 12:15:27;;;;;;;6.97;2.40;;;29.90;62.20;;;;;;4936671;29;20466;-76
2022/05/16 12:18:05;;;;;;;5.50;2.30;;;29.10;65.00;;;;;;4919060;29;20824;-75
2022/05/16 12:20:42;;;;;;;8.37;2.63;;;29.70;61.90;;;;;;4936201;29;20647;-75
2022/05/16 12:23:10;;;;;;;5.13;2.57;;;29.60;61.90;;;;;;4936362;29;20411;-76
2022/05/16 12:25:37;;;;;;;5.20;2.37;;;30.10;62.30;;;;;;4936394;29;20403;-75
2022/05/16 12:28:12;;;;;;;5.67;2.20;;;30.50;64.90;;;;;;4936067;29;20415;-75
2022/05/16 12:30:37;;;;;;;4.90;2.40;;;31.00;63.80;;;;;;4936220;29;20433;-75
2022/05/16 12:33:05;;;;;;;5.13;2.13;;;31.30;63.10;;;;;;4936206;29;20866;-75
2022/05/16 12:35:45;;;;;;;7.47;2.23;;;31.20;59.10;;;;;;4935512;29;20187;-76
2022/05/16 12:38:15;;;;;;;6.10;2.77;;;29.60;59.50;;;;;;4935902;29;20465;-76
2022/05/16 12:41:44;;;;;;;3.73;2.53;;;29.00;62.70;;;;;;4936090;29;20430;-75
2022/05/16 12:44:52;;;;;;;3.70;2.43;;;28.20;66.50;;;;;;4921740;29;20927;-75
2022/05/16 12:47:44;;;;;;;9.47;2.73;;;28.00;69.70;;;;;;4926475;29;20945;-75
2022/05/16 12:50:47;;;;;;;3.70;1.90;;;28.20;67.50;;;;;;4935996;29;20426;-76
2022/05/16 12:53:49;;;;;;;7.63;2.50;;;28.60;64.60;;;;;;4941930;28;20430;-75
2022/05/16 12:56:41;;;;;;;7.33;2.43;;;28.50;65.70;;;;;;4935889;29;20984;-76
2022/05/16 12:59:32;;;;;;;6.10;2.17;;;28.00;67.70;;;;;;4938472;29;20429;-76
2022/05/16 13:02:19;;;;;;;7.33;2.43;;;27.40;66.80;;;;;;4954653;28;20505;-76
2022/05/16 13:05:04;;;;;;;4.10;2.17;;;27.00;67.00;;;;;;4954889;28;20429;-76
2022/05/16 13:07:56;;;;;;;7.33;1.70;;;26.50;69.10;;;;;;4954493;28;20414;-75
2022/05/16 13:10:31;;;;;;;4.30;1.73;;;26.00;68.80;;;;;;4954731;28;20436;-75
2022/05/16 13:13:30;;;;;;;4.57;1.97;;;25.90;69.50;;;;;;4954608;29;20484;-74
2022/05/16 13:16:25;;;;;;;6.70;2.40;;;25.60;67.20;;;;;;4954651;29;20418;-74
2022/05/16 13:19:12;;;;;;;8.83;1.70;;;25.00;69.30;;;;;;4954179;29;20496;-75
2022/05/16 13:21:40;;;;;;;5.17;1.53;;;25.00;69.10;;;;;;4954445;29;20830;-76
2022/05/16 13:24:11;;;;;;;4.07;2.00;;;25.30;71.30;;;;;;4954493;29;20414;-76
2022/05/16 13:29:23;;;;;;;3.70;2.27;;;25.20;69.80;;;;;;4954269;29;20505;-75
2022/05/16 13:31:58;;;;;;;4.20;1.60;;;25.10;70.70;;;;;;4954229;29;20441;-75
2022/05/16 13:34:44;;;;;;;4.40;2.20;;;25.30;69.50;;;;;;4954384;29;20484;-75
2022/05/16 13:37:10;;;;;;;7.33;1.90;;;25.40;70.40;;;;;;4954186;29;20458;-75
2022/05/16 13:39:40;;;;;;;5.93;1.80;;;25.10;70.90;;;;;;4953934;29;20425;-75
2022/05/16 13:42:06;;;;;;;3.70;1.73;;;24.70;72.90;;;;;;4953946;29;20434;-75
2022/05/16 13:44:45;;;;;;;5.97;2.00;;;24.50;74.50;;;;;;4954073;29;20406;-75
2022/05/16 13:47:13;;;;;;;11.00;2.03;;;24.60;72.90;;;;;;4953980;28;20422;-75
2022/05/16 13:49:40;;;;;;;4.93;1.73;;;24.50;72.90;;;;;;4953773;29;20859;-76
2022/05/16 13:52:17;;;;;;;6.50;1.70;;;24.40;73.60;;;;;;4953912;29;20488;-75
2022/05/16 13:54:43;;;;;;;4.40;1.73;;;24.00;73.50;;;;;;4954121;29;20509;-77
2022/05/16 13:57:12;;;;;;;3.77;1.90;;;23.70;73.10;;;;;;4953979;29;20549;-75
2022/05/16 13:59:38;;;;;;;3.50;1.73;;;23.50;74.40;;;;;;4953882;29;20177;-75
2022/05/16 14:02:15;;;;;;;9.83;1.97;;;23.30;75.00;;;;;;4953760;29;20795;-75
2022/05/16 14:04:49;;;;;;;3.30;1.80;;;23.30;74.50;;;;;;4954045;29;20406;-75
2022/05/16 14:07:25;;;;;;;3.10;1.50;;;23.30;75.90;;;;;;4953711;29;20410;-75
2022/05/16 14:10:05;;;;;;;4.60;1.57;;;23.30;78.90;;;;;;4953982;29;20848;-75
2022/05/16 14:12:33;;;;;;;3.00;1.60;;;23.30;80.80;;;;;;4942998;29;20450;-76
2022/05/16 14:14:59;;;;;;;5.23;1.50;;;23.30;79.60;;;;;;4930293;29;20432;-76
2022/05/16 14:17:40;;;;;;;7.13;2.13;;;23.20;79.50;;;;;;4945765;29;20459;-74
2022/05/16 14:20:15;;;;;;;8.03;2.23;;;23.30;76.60;;;;;;4953514;29;20430;-75
2022/05/16 14:22:44;;;;;;;4.60;2.00;;;23.30;76.80;;;;;;4953625;29;20406;-75
2022/05/16 14:25:13;;;;;;;4.17;2.23;;;22.40;83.00;;;;;;4953628;29;20406;-75
2022/05/16 14:28:06;;;;;;;10.93;3.00;;;21.70;87.60;;;;;;4936261;29;20923;-76
2022/05/16 14:30:34;;;;;;;14.10;3.27;;;21.00;93.40;;;;;;4937990;29;20792;-79
2022/05/16 14:33:10;;;;;;;8.60;2.57;;;20.40;96.30;;;;;;4958428;29;20429;-79
2022/05/16 14:35:37;;;;;;;4.83;2.63;;;19.60;96.30;;;;;;4958094;29;20414;-78
2022/05/16 14:38:13;;;;;;;20.73;2.60;;;19.10;96.30;;;;;;4954222;29;20565;-75
2022/05/16 14:40:43;;;;;;;8.00;3.03;;;18.90;96.30;;;;;;4954007;29;20449;-77
2022/05/16 14:43:13;;;;;;;7.27;3.00;;;18.70;96.30;;;;;;4938193;29;20519;-76
2022/05/16 14:48:37;;;;;;;6.30;2.70;;;18.50;96.30;;;;;;4947066;29;20421;-76
2022/05/16 14:51:07;;;;;;;6.53;2.73;;;18.30;96.30;;;;;;4935019;29;20450;-75
2022/05/16 14:53:33;;;;;;;5.50;3.10;;;18.30;96.30;;;;;;4943075;29;20214;-74
2022/05/16 14:55:59;;;;;;;11.90;3.10;;;18.30;96.30;;;;;;4948795;29;20422;-75
2022/05/16 14:58:24;;;;;;;8.77;3.10;;;18.30;96.30;;;;;;4951052;28;20462;-76
2022/05/16 15:06:20;;;;;;;4.10;2.80;;;18.70;96.30;;;;;;4948842;28;20449;-76
2022/05/16 15:08:51;;;;;;;7.10;3.20;;;18.90;96.30;;;;;;4943139;29;20505;-77
2022/05/16 15:11:20;;;;;;;8.13;3.50;;;19.10;96.30;;;;;;4949134;28;20893;-75
2022/05/16 15:13:45;;;;;;;12.03;4.63;;;19.50;96.30;;;;;;4958185;28;20424;-77
2022/05/16 15:16:12;;;;;;;4.20;3.40;;;19.90;96.30;;;;;;4937433;29;20442;-77
2022/05/16 15:18:37;;;;;;;7.13;3.20;;;20.30;96.30;;;;;;4953844;28;20202;-77
2022/05/16 15:21:04;;;;;;;6.37;3.27;;;20.60;96.30;;;;;;4950433;29;20796;-78
2022/05/16 15:23:30;;;;;;;6.90;3.80;;;21.10;96.30;;;;;;4939573;28;20182;-77
2022/05/16 15:25:58;;;;;;;9.90;3.80;;;21.30;96.30;;;;;;4948011;29;20439;-79
2022/05/16 15:28:23;;;;;;;14.43;3.70;;;21.30;96.30;;;;;;4952136;29;20434;-79
2022/05/16 15:30:49;;;;;;;5.03;3.77;;;21.20;96.30;;;;;;4958883;28;20442;-79
2022/05/16 15:33:15;;;;;;;6.80;3.60;;;21.20;96.30;;;;;;4939312;29;20195;-79
2022/05/16 15:35:43;;;;;;;11.17;4.07;;;21.00;96.30;;;;;;4937637;29;20441;-77
2022/05/16 15:38:09;;;;;;;5.77;2.87;;;21.50;96.30;;;;;;4956394;29;20697;-77
2022/05/16 15:40:36;;;;;;;5.57;3.70;;;21.80;96.30;;;;;;4926935;28;20446;-77
2022/05/16 15:43:06;;;;;;;8.87;3.30;;;21.90;96.30;;;;;;4957571;28;20189;-78
2022/05/16 15:45:32;;;;;;;5.10;3.13;;;21.80;96.30;;;;;;4961085;28;20436;-78
2022/05/16 15:47:58;;;;;;;7.80;3.30;;;21.40;96.30;;;;;;4950383;28;20445;-76
2022/05/16 15:50:26;;;;;;;3.37;3.07;;;21.20;96.30;;;;;;4954230;29;20438;-78
2022/05/16 15:52:52;;;;;;;15.23;3.30;;;21.40;96.30;;;;;;4939110;28;20418;-78
2022/05/16 15:55:20;;;;;;;14.20;3.67;;;21.40;96.30;;;;;;4968741;28;20430;-77
2022/05/16 15:57:46;;;;;;;6.53;2.97;;;21.30;96.30;;;;;;4953982;28;20507;-78
2022/05/16 16:00:15;;;;;;;11.43;3.17;;;21.40;96.30;;;;;;4956329;28;20927;-77
2022/05/16 16:02:46;;;;;;;21.13;5.57;;;21.50;96.30;;;;;;4964372;28;20187;-74
2022/05/16 16:10:47;;;;;;;8.53;3.50;;;21.70;96.30;;;;;;4965226;28;20468;-78
2022/05/16 16:13:17;;;;;;;6.00;2.67;;;21.40;96.30;;;;;;4964426;28;20425;-78
2022/05/16 16:15:43;;;;;;;7.23;3.27;;;21.40;96.30;;;;;;4955880;28;20442;-77
2022/05/16 16:18:12;;;;;;;7.23;3.47;;;21.40;96.30;;;;;;4958935;28;20496;-78
2022/05/16 16:20:38;;;;;;;8.37;3.10;;;21.00;96.30;;;;;;4963583;28;20493;-78
2022/05/16 16:23:03;;;;;;;11.93;3.40;;;20.60;96.30;;;;;;4951713;29;20424;-78
2022/05/16 16:25:34;;;;;;;5.27;3.27;;;20.40;96.30;;;;;;4956975;29;20624;-79
2022/05/16 16:28:01;;;;;;;7.70;3.10;;;20.30;96.30;;;;;;4954388;29;20175;-79
2022/05/16 16:30:26;;;;;;;3.70;2.80;;;20.50;96.30;;;;;;4963676;28;20814;-78
2022/05/16 16:32:53;;;;;;;5.60;2.73;;;20.50;96.30;;;;;;4962873;28;20433;-78
2022/05/16 16:35:18;;;;;;;5.30;3.20;;;20.40;96.30;;;;;;4944848;28;20822;-77
2022/05/16 16:37:44;;;;;;;4.80;3.20;;;20.30;96.30;;;;;;4946598;28;21000;-77
2022/05/16 16:40:11;;;;;;;6.17;3.50;;;20.20;96.30;;;;;;4946425;28;20191;-77
2022/05/16 16:42:40;;;;;;;8.47;3.80;;;20.20;96.30;;;;;;4965982;28;20248;-75
2022/05/16 16:45:07;;;;;;;5.30;2.77;;;20.20;96.30;;;;;;4964557;28;20425;-76
2022/05/16 16:47:33;;;;;;;10.60;2.90;;;20.20;96.30;;;;;;4957064;28;20934;-76
2022/05/16 16:49:58;;;;;;;5.83;3.10;;;20.00;96.30;;;;;;4949464;28;20438;-75
2022/05/16 16:57:56;;;;;;;5.57;3.60;;;20.00;96.30;;;;;;4951755;29;20601;-74
2022/05/16 17:00:23;;;;;;;9.07;3.50;;;20.00;96.30;;;;;;4954377;29;20798;-75
2022/05/16 17:02:51;;;;;;;6.33;2.83;;;19.80;96.30;;;;;;4949869;29;20474;-74
2022/05/16 17:05:25;;;;;;;4.77;3.70;;;19.70;96.30;;;;;;4949036;29;20430;-74
2022/05/16 17:07:57;;;;;;;6.87;3.87;;;19.60;96.30;;;;;;4949680;29;20965;-73
2022/05/16 17:10:41;;;;;;;6.47;3.30;;;19.40;96.30;;;;;;4954396;29;20402;-74
2022/05/16 17:13:09;;;;;;;8.23;3.03;;;19.30;96.30;;;;;;4939648;29;20455;-75
2022/05/16 17:15:35;;;;;;;6.13;2.77;;;19.20;96.30;;;;;;4952650;28;20485;-74
2022/05/16 17:18:03;;;;;;;7.50;3.07;;;19.20;96.30;;;;;;4950501;28;21008;-74
2022/05/16 17:20:30;;;;;;;6.57;2.90;;;19.00;96.30;;;;;;4949073;28;20186;-75
2022/05/16 17:22:57;;;;;;;11.63;3.50;;;19.00;96.30;;;;;;4959202;28;20909;-75
2022/05/16 17:25:23;;;;;;;7.40;2.87;;;18.80;96.30;;;;;;4953424;29;20529;-74
2022/05/16 17:27:48;;;;;;;6.23;2.90;;;18.90;96.30;;;;;;4932695;28;21204;-75
2022/05/16 17:30:15;;;;;;;5.50;3.30;;;18.90;96.30;;;;;;4945050;28;20170;-74
2022/05/16 17:32:42;;;;;;;6.33;3.47;;;18.90;96.30;;;;;;4955088;28;20210;-76
2022/05/16 17:35:08;;;;;;;11.73;4.97;;;18.80;96.30;;;;;;4940726;28;20951;-74
2022/05/16 17:37:34;;;;;;;7.13;3.60;;;18.90;96.30;;;;;;4957597;28;20458;-74
2022/05/16 17:40:01;;;;;;;5.57;3.70;;;18.90;96.30;;;;;;4954188;29;20185;-74
2022/05/16 17:42:27;;;;;;;7.23;3.30;;;18.90;96.30;;;;;;4953618;29;20542;-74
2022/05/16 17:44:54;;;;;;;7.90;3.53;;;18.90;96.30;;;;;;4952255;29;20430;-76
2022/05/16 17:47:20;;;;;;;5.20;3.60;;;18.90;96.30;;;;;;4938504;29;20415;-74
2022/05/16 17:49:45;;;;;;;6.10;4.07;;;18.80;96.30;;;;;;4936871;29;22180;-74
2022/05/16 17:52:13;;;;;;;8.10;3.73;;;18.70;96.30;;;;;;4954084;29;20465;-74
2022/05/16 17:54:46;;;;;;;5.70;3.43;;;18.70;96.30;;;;;;4954123;29;20179;-74
2022/05/16 17:57:12;;;;;;;5.40;3.60;;;18.70;96.30;;;;;;4936890;29;20462;-75
2022/05/16 17:59:38;;;;;;;6.40;3.07;;;18.60;96.30;;;;;;4953228;29;20414;-74
2022/05/16 18:02:04;;;;;;;6.57;3.30;;;18.60;96.30;;;;;;4950463;29;20459;-73
2022/05/16 18:04:30;;;;;;;5.60;3.30;;;18.50;96.30;;;;;;4935091;29;20184;-75
2022/05/16 18:06:59;;;;;;;9.03;3.60;;;18.50;96.30;;;;;;4940606;28;20416;-73
2022/05/16 18:09:25;;;;;;;5.10;3.40;;;18.40;96.30;;;;;;4954715;28;20185;-73
2022/05/16 18:14:35;;;;;;;5.30;3.03;;;18.50;96.30;;;;;;4963711;28;20416;-73
2022/05/16 18:17:01;;;;;;;6.50;3.77;;;18.30;96.30;;;;;;4970147;28;20518;-73
2022/05/16 18:19:27;;;;;;;6.83;3.33;;;18.20;96.30;;;;;;4955392;29;20438;-72
2022/05/16 18:21:54;;;;;;;9.00;3.50;;;18.10;96.30;;;;;;4955123;29;20654;-72
2022/05/16 18:24:20;;;;;;;9.53;3.33;;;18.00;96.30;;;;;;4954227;29;20929;-72
2022/05/16 18:26:47;;;;;;;8.60;3.20;;;18.00;96.30;;;;;;4953078;29;20517;-73
2022/05/16 18:29:15;;;;;;;6.40;3.20;;;18.00;96.30;;;;;;4941216;29;20190;-73
2022/05/16 18:31:42;;;;;;;4.90;3.23;;;18.00;96.30;;;;;;4932651;29;20455;-74
2022/05/16 18:34:08;;;;;;;8.80;3.50;;;17.90;96.30;;;;;;4935475;29;20828;-73
2022/05/16 18:36:34;;;;;;;8.03;3.43;;;17.90;96.30;;;;;;4964780;28;20973;-73
2022/05/16 18:39:01;;;;;;;6.43;3.67;;;17.90;96.30;;;;;;4958556;28;20198;-74
2022/05/16 18:52:41;;;;;;;10.13;4.27;;;17.50;96.30;;;;;;4938076;29;20490;-75
2022/05/16 18:55:08;;;;;;;5.23;4.03;;;17.50;96.30;;;;;;4938026;29;20794;-75
2022/05/16 18:57:34;;;;;;;5.70;3.77;;;17.50;96.30;;;;;;4954732;28;20484;-74
2022/05/16 19:00:00;;;;;;;5.67;4.17;;;17.50;96.30;;;;;;4976518;28;20947;-76
2022/05/16 19:02:25;;;;;;;3.90;3.20;;;17.40;96.30;;;;;;4976389;28;20469;-75
2022/05/16 19:04:51;;;;;;;6.13;3.63;;;17.40;96.30;;;;;;4963465;28;20178;-76
2022/05/16 19:07:16;;;;;;;5.47;3.50;;;17.30;96.30;;;;;;4939728;29;20274;-75
2022/05/16 19:09:42;;;;;;;8.50;3.90;;;17.30;96.30;;;;;;4956338;29;20187;-75
2022/05/16 19:12:09;;;;;;;6.97;3.50;;;17.20;96.30;;;;;;4955164;29;20712;-76
2022/05/16 19:14:35;;;;;;;5.63;3.53;;;17.20;96.30;;;;;;4956859;29;20538;-75
2022/05/16 19:17:04;;;;;;;8.90;4.03;;;17.10;96.30;;;;;;4956745;29;20411;-75
2022/05/16 19:19:30;;;;;;;6.30;3.50;;;17.10;96.30;;;;;;4956550;29;20458;-75
2022/05/16 19:21:55;;;;;;;4.60;3.70;;;17.10;96.30;;;;;;4956626;29;20802;-75
2022/05/16 19:24:21;;;;;;;6.73;3.70;;;17.20;96.30;;;;;;4955067;29;20434;-75
2022/05/16 19:26:47;;;;;;;10.90;4.60;;;17.10;96.30;;;;;;4956624;29;20175;-76
2022/05/16 19:32:00;;;;;;;6.20;3.37;;;17.10;96.30;;;;;;4956569;29;20210;-76
2022/05/16 19:34:28;;;;;;;5.40;3.73;;;17.00;96.30;;;;;;4956228;29;20452;-76
2022/05/16 19:36:54;;;;;;;4.60;3.13;;;17.00;96.30;;;;;;4965831;28;20414;-76
2022/05/16 19:39:19;;;;;;;5.60;3.53;;;17.00;96.30;;;;;;4966689;28;20476;-76